sensor_id;sensor_type;location;lat;lon;timestamp;P1;durP1;ratioP1;P2;durP2;ratioP2
7191;SDS011;3637;51.494;11.958;2023-02-28T00:00:10;2.47;;;2.10;;
7191;SDS011;3637;51.494;11.958;2023-02-28T00:03:13;3.07;;;2.23;;
7191;SDS011;3637;51.494;11.958;2023-02-28T00:06:15;2.50;;;2.30;;
7191;SDS011;3637;51.494;11.958;2023-02-28T00:09:17;2.07;;;1.87;;
7191;SDS011;3637;51.494;11.958;2023-02-28T00:12:19;2.13;;;1.93;;
7191;SDS011;3637;51.494;11.958;2023-02-28T00:15:23;3.10;;;2.20;;
7191;SDS011;3637;51.494;11.958;2023-02-28T00:18:25;2.13;;;1.83;;
7191;SDS011;3637;51.494;11.958;2023-02-28T00:21:27;2.60;;;2.07;;
7191;SDS011;3637;51.494;11.958;2023-02-28T00:24:29;3.10;;;2.33;;
7191;SDS011;3637;51.494;11.958;2023-02-28T00:27:30;2.77;;;2.40;;
7191;SDS011;3637;51.494;11.958;2023-02-28T00:30:34;2.20;;;2.00;;
7191;SDS011;3637;51.494;11.958;2023-02-28T00:33:35;3.20;;;2.20;;
7191;SDS011;3637;51.494;11.958;2023-02-28T00:36:37;4.17;;;2.30;;
7191;SDS011;3637;51.494;11.958;2023-02-28T00:39:40;3.63;;;2.30;;
7191;SDS011;3637;51.494;11.958;2023-02-28T00:42:42;3.77;;;2.13;;
7191;SDS011;3637;51.494;11.958;2023-02-28T00:45:45;4.77;;;2.23;;
7191;SDS011;3637;51.494;11.958;2023-02-28T00:48:49;2.13;;;1.93;;
7191;SDS011;3637;51.494;11.958;2023-02-28T00:51:51;2.10;;;1.90;;
7191;SDS011;3637;51.494;11.958;2023-02-28T00:54:54;3.30;;;2.27;;
7191;SDS011;3637;51.494;11.958;2023-02-28T00:57:56;3.97;;;2.50;;
7191;SDS011;3637;51.494;11.958;2023-02-28T01:00:59;2.60;;;2.17;;
7191;SDS011;3637;51.494;11.958;2023-02-28T01:04:01;2.97;;;2.20;;
7191;SDS011;3637;51.494;11.958;2023-02-28T01:07:03;3.00;;;2.23;;
7191;SDS011;3637;51.494;11.958;2023-02-28T01:10:05;2.97;;;2.53;;
7191;SDS011;3637;51.494;11.958;2023-02-28T01:13:07;3.47;;;2.63;;
7191;SDS011;3637;51.494;11.958;2023-02-28T01:16:11;4.37;;;2.47;;
7191;SDS011;3637;51.494;11.958;2023-02-28T01:19:13;2.97;;;2.10;;
7191;SDS011;3637;51.494;11.958;2023-02-28T01:22:15;2.23;;;2.03;;
7191;SDS011;3637;51.494;11.958;2023-02-28T01:25:17;2.50;;;2.20;;
7191;SDS011;3637;51.494;11.958;2023-02-28T01:28:19;2.30;;;2.10;;
7191;SDS011;3637;51.494;11.958;2023-02-28T01:31:22;2.10;;;2.00;;
7191;SDS011;3637;51.494;11.958;2023-02-28T01:34:25;2.80;;;2.20;;
7191;SDS011;3637;51.494;11.958;2023-02-28T01:37:26;2.00;;;1.77;;
7191;SDS011;3637;51.494;11.958;2023-02-28T01:40:28;2.20;;;2.00;;
7191;SDS011;3637;51.494;11.958;2023-02-28T01:43:30;2.70;;;2.10;;
7191;SDS011;3637;51.494;11.958;2023-02-28T01:46:35;3.70;;;2.23;;
7191;SDS011;3637;51.494;11.958;2023-02-28T01:49:37;2.10;;;1.90;;
7191;SDS011;3637;51.494;11.958;2023-02-28T01:52:39;2.63;;;1.90;;
7191;SDS011;3637;51.494;11.958;2023-02-28T01:55:42;3.20;;;2.10;;
7191;SDS011;3637;51.494;11.958;2023-02-28T01:58:49;3.20;;;2.47;;
7191;SDS011;3637;51.494;11.958;2023-02-28T02:01:53;2.40;;;2.10;;
7191;SDS011;3637;51.494;11.958;2023-02-28T02:04:56;2.47;;;2.23;;
7191;SDS011;3637;51.494;11.958;2023-02-28T02:08:03;2.40;;;1.87;;
7191;SDS011;3637;51.494;11.958;2023-02-28T02:11:07;3.07;;;2.30;;
7191;SDS011;3637;51.494;11.958;2023-02-28T02:14:17;2.23;;;2.03;;
7191;SDS011;3637;51.494;11.958;2023-02-28T02:17:42;2.77;;;1.77;;
7191;SDS011;3637;51.494;11.958;2023-02-28T02:20:55;1.93;;;1.80;;
7191;SDS011;3637;51.494;11.958;2023-02-28T02:24:24;3.50;;;1.97;;
7191;SDS011;3637;51.494;11.958;2023-02-28T02:28:04;2.30;;;2.10;;
7191;SDS011;3637;51.494;11.958;2023-02-28T02:31:47;2.00;;;1.80;;
7191;SDS011;3637;51.494;11.958;2023-02-28T02:35:10;4.37;;;2.10;;
7191;SDS011;3637;51.494;11.958;2023-02-28T02:38:17;2.17;;;2.03;;
7191;SDS011;3637;51.494;11.958;2023-02-28T02:41:28;2.30;;;2.00;;
7191;SDS011;3637;51.494;11.958;2023-02-28T02:44:40;1.80;;;1.70;;
7191;SDS011;3637;51.494;11.958;2023-02-28T02:47:45;2.00;;;1.80;;
7191;SDS011;3637;51.494;11.958;2023-02-28T02:50:52;2.50;;;2.07;;
7191;SDS011;3637;51.494;11.958;2023-02-28T02:53:57;1.93;;;1.70;;
7191;SDS011;3637;51.494;11.958;2023-02-28T02:57:04;2.57;;;2.07;;
7191;SDS011;3637;51.494;11.958;2023-02-28T03:00:09;2.07;;;1.87;;
7191;SDS011;3637;51.494;11.958;2023-02-28T03:03:13;2.90;;;2.30;;
7191;SDS011;3637;51.494;11.958;2023-02-28T03:06:19;2.03;;;1.87;;
7191;SDS011;3637;51.494;11.958;2023-02-28T03:09:21;4.10;;;2.10;;
7191;SDS011;3637;51.494;11.958;2023-02-28T03:12:23;3.03;;;2.20;;
7191;SDS011;3637;51.494;11.958;2023-02-28T03:15:35;2.30;;;2.10;;
7191;SDS011;3637;51.494;11.958;2023-02-28T03:18:47;2.47;;;2.13;;
7191;SDS011;3637;51.494;11.958;2023-02-28T03:22:01;2.23;;;2.03;;
7191;SDS011;3637;51.494;11.958;2023-02-28T03:25:17;2.50;;;2.30;;
7191;SDS011;3637;51.494;11.958;2023-02-28T03:28:25;2.07;;;1.97;;
7191;SDS011;3637;51.494;11.958;2023-02-28T03:31:33;2.67;;;2.10;;
7191;SDS011;3637;51.494;11.958;2023-02-28T03:34:39;3.20;;;1.90;;
7191;SDS011;3637;51.494;11.958;2023-02-28T03:37:47;2.60;;;2.00;;
7191;SDS011;3637;51.494;11.958;2023-02-28T03:40:55;2.37;;;1.97;;
7191;SDS011;3637;51.494;11.958;2023-02-28T03:44:03;2.00;;;1.80;;
7191;SDS011;3637;51.494;11.958;2023-02-28T03:47:08;2.43;;;2.23;;
7191;SDS011;3637;51.494;11.958;2023-02-28T03:50:14;3.00;;;2.10;;
7191;SDS011;3637;51.494;11.958;2023-02-28T03:53:23;3.80;;;2.00;;
7191;SDS011;3637;51.494;11.958;2023-02-28T03:56:33;2.50;;;2.30;;
7191;SDS011;3637;51.494;11.958;2023-02-28T03:59:39;2.33;;;2.10;;
7191;SDS011;3637;51.494;11.958;2023-02-28T04:02:45;4.87;;;2.53;;
7191;SDS011;3637;51.494;11.958;2023-02-28T04:05:53;2.40;;;2.20;;
7191;SDS011;3637;51.494;11.958;2023-02-28T04:08:58;2.27;;;2.07;;
7191;SDS011;3637;51.494;11.958;2023-02-28T04:12:00;6.03;;;2.30;;
7191;SDS011;3637;51.494;11.958;2023-02-28T04:15:02;2.47;;;2.27;;
7191;SDS011;3637;51.494;11.958;2023-02-28T04:18:05;1.97;;;1.87;;
7191;SDS011;3637;51.494;11.958;2023-02-28T04:21:07;2.43;;;2.20;;
7191;SDS011;3637;51.494;11.958;2023-02-28T04:24:12;2.83;;;2.20;;
7191;SDS011;3637;51.494;11.958;2023-02-28T04:27:15;3.43;;;2.00;;
7191;SDS011;3637;51.494;11.958;2023-02-28T04:30:16;2.07;;;1.90;;
7191;SDS011;3637;51.494;11.958;2023-02-28T04:33:18;2.00;;;1.90;;
7191;SDS011;3637;51.494;11.958;2023-02-28T04:36:20;2.87;;;2.13;;
7191;SDS011;3637;51.494;11.958;2023-02-28T04:39:26;2.70;;;2.50;;
7191;SDS011;3637;51.494;11.958;2023-02-28T04:42:27;3.10;;;2.00;;
7191;SDS011;3637;51.494;11.958;2023-02-28T04:45:35;2.47;;;2.00;;
7191;SDS011;3637;51.494;11.958;2023-02-28T04:48:37;2.37;;;1.90;;
7191;SDS011;3637;51.494;11.958;2023-02-28T04:51:40;5.13;;;2.07;;
7191;SDS011;3637;51.494;11.958;2023-02-28T04:54:43;2.20;;;2.00;;
7191;SDS011;3637;51.494;11.958;2023-02-28T04:57:45;3.80;;;2.20;;
7191;SDS011;3637;51.494;11.958;2023-02-28T05:00:48;2.20;;;1.90;;
7191;SDS011;3637;51.494;11.958;2023-02-28T05:03:50;2.40;;;2.20;;
7191;SDS011;3637;51.494;11.958;2023-02-28T05:06:53;2.97;;;2.20;;
7191;SDS011;3637;51.494;11.958;2023-02-28T05:09:56;4.00;;;2.27;;
7191;SDS011;3637;51.494;11.958;2023-02-28T05:13:01;3.00;;;2.23;;
7191;SDS011;3637;51.494;11.958;2023-02-28T05:16:03;3.17;;;2.50;;
7191;SDS011;3637;51.494;11.958;2023-02-28T05:19:07;16.27;;;8.53;;
7191;SDS011;3637;51.494;11.958;2023-02-28T05:22:12;5.87;;;3.60;;
7191;SDS011;3637;51.494;11.958;2023-02-28T05:25:21;4.93;;;2.73;;
7191;SDS011;3637;51.494;11.958;2023-02-28T05:28:23;4.33;;;2.47;;
7191;SDS011;3637;51.494;11.958;2023-02-28T05:31:28;4.40;;;3.07;;
7191;SDS011;3637;51.494;11.958;2023-02-28T05:34:30;3.53;;;2.67;;
7191;SDS011;3637;51.494;11.958;2023-02-28T05:37:32;4.40;;;3.00;;
7191;SDS011;3637;51.494;11.958;2023-02-28T05:40:35;5.00;;;2.73;;
7191;SDS011;3637;51.494;11.958;2023-02-28T05:43:40;3.53;;;2.30;;
7191;SDS011;3637;51.494;11.958;2023-02-28T05:46:42;2.20;;;2.00;;
7191;SDS011;3637;51.494;11.958;2023-02-28T05:49:43;2.83;;;2.17;;
7191;SDS011;3637;51.494;11.958;2023-02-28T05:52:48;7.73;;;2.27;;
7191;SDS011;3637;51.494;11.958;2023-02-28T05:55:52;8.77;;;2.60;;
7191;SDS011;3637;51.494;11.958;2023-02-28T05:58:53;4.73;;;3.00;;
7191;SDS011;3637;51.494;11.958;2023-02-28T06:01:55;3.57;;;2.60;;
7191;SDS011;3637;51.494;11.958;2023-02-28T06:04:59;4.10;;;3.07;;
7191;SDS011;3637;51.494;11.958;2023-02-28T06:08:01;4.33;;;2.77;;
7191;SDS011;3637;51.494;11.958;2023-02-28T06:11:04;3.53;;;3.23;;
7191;SDS011;3637;51.494;11.958;2023-02-28T06:14:06;3.83;;;2.93;;
7191;SDS011;3637;51.494;11.958;2023-02-28T06:17:14;4.93;;;2.90;;
7191;SDS011;3637;51.494;11.958;2023-02-28T06:20:16;4.23;;;2.53;;
7191;SDS011;3637;51.494;11.958;2023-02-28T06:23:18;3.93;;;2.47;;
7191;SDS011;3637;51.494;11.958;2023-02-28T06:26:21;4.73;;;2.60;;
7191;SDS011;3637;51.494;11.958;2023-02-28T06:29:26;3.77;;;2.40;;
7191;SDS011;3637;51.494;11.958;2023-02-28T06:32:28;3.67;;;2.80;;
7191;SDS011;3637;51.494;11.958;2023-02-28T06:35:32;2.47;;;2.27;;
7191;SDS011;3637;51.494;11.958;2023-02-28T06:38:39;2.77;;;2.20;;
7191;SDS011;3637;51.494;11.958;2023-02-28T06:41:45;3.33;;;2.27;;
7191;SDS011;3637;51.494;11.958;2023-02-28T06:44:48;2.70;;;2.37;;
7191;SDS011;3637;51.494;11.958;2023-02-28T06:47:50;3.90;;;2.73;;
7191;SDS011;3637;51.494;11.958;2023-02-28T06:50:52;3.23;;;2.93;;
7191;SDS011;3637;51.494;11.958;2023-02-28T06:54:02;4.53;;;3.20;;
7191;SDS011;3637;51.494;11.958;2023-02-28T06:57:08;2.83;;;2.30;;
7191;SDS011;3637;51.494;11.958;2023-02-28T07:00:11;4.43;;;3.03;;
7191;SDS011;3637;51.494;11.958;2023-02-28T07:03:13;4.73;;;2.50;;
7191;SDS011;3637;51.494;11.958;2023-02-28T07:06:15;2.70;;;2.17;;
7191;SDS011;3637;51.494;11.958;2023-02-28T07:09:19;4.53;;;2.90;;
7191;SDS011;3637;51.494;11.958;2023-02-28T07:12:22;4.77;;;2.80;;
7191;SDS011;3637;51.494;11.958;2023-02-28T07:15:24;5.57;;;3.57;;
7191;SDS011;3637;51.494;11.958;2023-02-28T07:18:26;4.33;;;3.10;;
7191;SDS011;3637;51.494;11.958;2023-02-28T07:21:29;3.47;;;2.80;;
7191;SDS011;3637;51.494;11.958;2023-02-28T07:24:33;4.97;;;2.77;;
7191;SDS011;3637;51.494;11.958;2023-02-28T07:27:37;3.87;;;2.97;;
7191;SDS011;3637;51.494;11.958;2023-02-28T07:30:39;5.90;;;2.90;;
7191;SDS011;3637;51.494;11.958;2023-02-28T07:33:41;4.30;;;3.27;;
7191;SDS011;3637;51.494;11.958;2023-02-28T07:36:43;3.17;;;2.40;;
7191;SDS011;3637;51.494;11.958;2023-02-28T07:39:45;3.70;;;3.27;;
7191;SDS011;3637;51.494;11.958;2023-02-28T07:42:48;4.47;;;3.20;;
7191;SDS011;3637;51.494;11.958;2023-02-28T07:45:50;9.17;;;3.40;;
7191;SDS011;3637;51.494;11.958;2023-02-28T07:48:52;4.07;;;2.73;;
7191;SDS011;3637;51.494;11.958;2023-02-28T07:51:55;3.77;;;3.20;;
7191;SDS011;3637;51.494;11.958;2023-02-28T07:54:56;4.20;;;3.70;;
7191;SDS011;3637;51.494;11.958;2023-02-28T07:58:00;3.03;;;2.30;;
7191;SDS011;3637;51.494;11.958;2023-02-28T08:01:08;3.53;;;2.57;;
7191;SDS011;3637;51.494;11.958;2023-02-28T08:04:11;4.83;;;3.00;;
7191;SDS011;3637;51.494;11.958;2023-02-28T08:07:13;3.37;;;2.70;;
7191;SDS011;3637;51.494;11.958;2023-02-28T08:10:15;3.03;;;2.73;;
7191;SDS011;3637;51.494;11.958;2023-02-28T08:13:19;5.73;;;2.70;;
7191;SDS011;3637;51.494;11.958;2023-02-28T08:16:22;5.90;;;2.60;;
7191;SDS011;3637;51.494;11.958;2023-02-28T08:19:23;3.30;;;2.73;;
7191;SDS011;3637;51.494;11.958;2023-02-28T08:22:25;2.90;;;2.57;;
7191;SDS011;3637;51.494;11.958;2023-02-28T08:25:28;4.33;;;2.60;;
7191;SDS011;3637;51.494;11.958;2023-02-28T08:28:31;3.57;;;2.77;;
7191;SDS011;3637;51.494;11.958;2023-02-28T08:31:33;4.80;;;3.13;;
7191;SDS011;3637;51.494;11.958;2023-02-28T08:34:36;3.97;;;2.77;;
7191;SDS011;3637;51.494;11.958;2023-02-28T08:37:43;3.10;;;2.80;;
7191;SDS011;3637;51.494;11.958;2023-02-28T08:40:44;6.37;;;2.93;;
7191;SDS011;3637;51.494;11.958;2023-02-28T08:43:48;6.33;;;2.87;;
7191;SDS011;3637;51.494;11.958;2023-02-28T08:46:49;6.60;;;2.97;;
7191;SDS011;3637;51.494;11.958;2023-02-28T08:49:51;3.70;;;2.90;;
7191;SDS011;3637;51.494;11.958;2023-02-28T08:52:53;2.73;;;2.40;;
7191;SDS011;3637;51.494;11.958;2023-02-28T08:55:55;4.30;;;3.30;;
7191;SDS011;3637;51.494;11.958;2023-02-28T08:59:02;2.93;;;2.47;;
7191;SDS011;3637;51.494;11.958;2023-02-28T09:02:04;3.00;;;2.33;;
7191;SDS011;3637;51.494;11.958;2023-02-28T09:05:07;7.30;;;2.93;;
7191;SDS011;3637;51.494;11.958;2023-02-28T09:08:09;5.70;;;2.80;;
7191;SDS011;3637;51.494;11.958;2023-02-28T09:11:11;6.10;;;3.10;;
7191;SDS011;3637;51.494;11.958;2023-02-28T09:14:15;3.77;;;2.87;;
7191;SDS011;3637;51.494;11.958;2023-02-28T09:17:17;3.90;;;3.20;;
7191;SDS011;3637;51.494;11.958;2023-02-28T09:20:20;3.50;;;2.83;;
7191;SDS011;3637;51.494;11.958;2023-02-28T09:23:23;4.37;;;2.87;;
7191;SDS011;3637;51.494;11.958;2023-02-28T09:26:26;4.00;;;2.87;;
7191;SDS011;3637;51.494;11.958;2023-02-28T09:29:30;4.43;;;3.37;;
7191;SDS011;3637;51.494;11.958;2023-02-28T09:32:34;5.63;;;3.23;;
7191;SDS011;3637;51.494;11.958;2023-02-28T09:35:36;4.70;;;3.10;;
7191;SDS011;3637;51.494;11.958;2023-02-28T09:38:38;6.33;;;3.13;;
7191;SDS011;3637;51.494;11.958;2023-02-28T09:41:41;5.63;;;2.90;;
7191;SDS011;3637;51.494;11.958;2023-02-28T09:44:49;7.27;;;3.13;;
7191;SDS011;3637;51.494;11.958;2023-02-28T09:47:52;3.37;;;2.93;;
7191;SDS011;3637;51.494;11.958;2023-02-28T09:50:59;2.70;;;2.50;;
7191;SDS011;3637;51.494;11.958;2023-02-28T09:54:03;2.90;;;2.60;;
7191;SDS011;3637;51.494;11.958;2023-02-28T09:57:06;2.87;;;2.40;;
7191;SDS011;3637;51.494;11.958;2023-02-28T10:00:13;5.73;;;2.93;;
7191;SDS011;3637;51.494;11.958;2023-02-28T10:03:24;3.00;;;2.13;;
7191;SDS011;3637;51.494;11.958;2023-02-28T10:06:29;3.47;;;2.47;;
7191;SDS011;3637;51.494;11.958;2023-02-28T10:09:36;2.90;;;2.37;;
7191;SDS011;3637;51.494;11.958;2023-02-28T10:12:38;3.10;;;2.17;;
7191;SDS011;3637;51.494;11.958;2023-02-28T10:15:46;3.37;;;2.30;;
7191;SDS011;3637;51.494;11.958;2023-02-28T10:18:53;4.03;;;2.80;;
7191;SDS011;3637;51.494;11.958;2023-02-28T10:21:59;4.07;;;2.87;;
7191;SDS011;3637;51.494;11.958;2023-02-28T10:25:05;5.00;;;3.27;;
7191;SDS011;3637;51.494;11.958;2023-02-28T10:28:18;4.80;;;3.00;;
7191;SDS011;3637;51.494;11.958;2023-02-28T10:31:21;7.37;;;3.20;;
7191;SDS011;3637;51.494;11.958;2023-02-28T10:34:23;3.17;;;2.43;;
7191;SDS011;3637;51.494;11.958;2023-02-28T10:37:26;3.17;;;2.63;;
7191;SDS011;3637;51.494;11.958;2023-02-28T10:40:31;3.37;;;2.63;;
7191;SDS011;3637;51.494;11.958;2023-02-28T10:43:35;6.10;;;2.90;;
7191;SDS011;3637;51.494;11.958;2023-02-28T10:46:39;3.23;;;2.83;;
7191;SDS011;3637;51.494;11.958;2023-02-28T10:49:46;2.80;;;2.50;;
7191;SDS011;3637;51.494;11.958;2023-02-28T10:52:49;6.73;;;2.77;;
7191;SDS011;3637;51.494;11.958;2023-02-28T10:55:55;4.53;;;3.13;;
7191;SDS011;3637;51.494;11.958;2023-02-28T10:58:59;4.80;;;3.00;;
7191;SDS011;3637;51.494;11.958;2023-02-28T11:02:08;3.63;;;2.90;;
7191;SDS011;3637;51.494;11.958;2023-02-28T11:05:33;4.87;;;3.10;;
7191;SDS011;3637;51.494;11.958;2023-02-28T11:08:43;4.27;;;3.23;;
7191;SDS011;3637;51.494;11.958;2023-02-28T11:11:47;3.37;;;3.07;;
7191;SDS011;3637;51.494;11.958;2023-02-28T11:14:53;5.87;;;2.90;;
7191;SDS011;3637;51.494;11.958;2023-02-28T11:18:00;3.27;;;2.50;;
7191;SDS011;3637;51.494;11.958;2023-02-28T11:21:04;3.80;;;2.93;;
7191;SDS011;3637;51.494;11.958;2023-02-28T11:24:12;3.10;;;2.80;;
7191;SDS011;3637;51.494;11.958;2023-02-28T11:27:26;5.20;;;3.00;;
7191;SDS011;3637;51.494;11.958;2023-02-28T11:30:49;12.03;;;5.07;;
7191;SDS011;3637;51.494;11.958;2023-02-28T11:34:11;5.87;;;3.37;;
7191;SDS011;3637;51.494;11.958;2023-02-28T11:37:26;4.60;;;3.13;;
7191;SDS011;3637;51.494;11.958;2023-02-28T11:40:31;4.63;;;3.27;;
7191;SDS011;3637;51.494;11.958;2023-02-28T11:43:46;3.30;;;2.93;;
7191;SDS011;3637;51.494;11.958;2023-02-28T11:47:00;5.70;;;2.93;;
7191;SDS011;3637;51.494;11.958;2023-02-28T11:50:22;4.43;;;2.83;;
7191;SDS011;3637;51.494;11.958;2023-02-28T11:53:44;4.43;;;3.23;;
7191;SDS011;3637;51.494;11.958;2023-02-28T11:57:00;4.07;;;3.07;;
7191;SDS011;3637;51.494;11.958;2023-02-28T12:00:14;3.70;;;3.00;;
7191;SDS011;3637;51.494;11.958;2023-02-28T12:03:28;4.13;;;3.30;;
7191;SDS011;3637;51.494;11.958;2023-02-28T12:06:43;4.10;;;3.50;;
7191;SDS011;3637;51.494;11.958;2023-02-28T12:09:52;5.03;;;3.50;;
7191;SDS011;3637;51.494;11.958;2023-02-28T12:13:05;3.50;;;2.87;;
7191;SDS011;3637;51.494;11.958;2023-02-28T12:16:16;3.33;;;2.90;;
7191;SDS011;3637;51.494;11.958;2023-02-28T12:19:29;3.57;;;3.00;;
7191;SDS011;3637;51.494;11.958;2023-02-28T12:22:42;4.67;;;3.03;;
7191;SDS011;3637;51.494;11.958;2023-02-28T12:26:03;5.73;;;3.40;;
7191;SDS011;3637;51.494;11.958;2023-02-28T12:29:14;4.77;;;3.23;;
7191;SDS011;3637;51.494;11.958;2023-02-28T12:32:20;4.37;;;3.23;;
7191;SDS011;3637;51.494;11.958;2023-02-28T12:35:26;4.87;;;3.13;;
7191;SDS011;3637;51.494;11.958;2023-02-28T12:38:38;4.50;;;3.00;;
7191;SDS011;3637;51.494;11.958;2023-02-28T12:41:45;4.80;;;3.60;;
7191;SDS011;3637;51.494;11.958;2023-02-28T12:44:51;6.77;;;3.13;;
7191;SDS011;3637;51.494;11.958;2023-02-28T12:47:58;4.27;;;3.33;;
7191;SDS011;3637;51.494;11.958;2023-02-28T12:51:04;5.83;;;3.37;;
7191;SDS011;3637;51.494;11.958;2023-02-28T12:54:12;4.83;;;3.20;;
7191;SDS011;3637;51.494;11.958;2023-02-28T12:57:22;4.93;;;3.80;;
7191;SDS011;3637;51.494;11.958;2023-02-28T13:00:33;4.13;;;3.73;;
7191;SDS011;3637;51.494;11.958;2023-02-28T13:11:23;4.87;;;3.40;;
7191;SDS011;3637;51.494;11.958;2023-02-28T13:14:27;5.17;;;2.90;;
7191;SDS011;3637;51.494;11.958;2023-02-28T13:17:31;4.73;;;3.43;;
7191;SDS011;3637;51.494;11.958;2023-02-28T13:20:34;3.93;;;3.07;;
7191;SDS011;3637;51.494;11.958;2023-02-28T13:23:39;5.93;;;3.30;;
7191;SDS011;3637;51.494;11.958;2023-02-28T13:34:06;6.60;;;3.77;;
7191;SDS011;3637;51.494;11.958;2023-02-28T13:40:43;3.93;;;2.97;;
7191;SDS011;3637;51.494;11.958;2023-02-28T13:44:03;6.03;;;4.07;;
7191;SDS011;3637;51.494;11.958;2023-02-28T13:47:20;4.50;;;3.37;;
7191;SDS011;3637;51.494;11.958;2023-02-28T13:50:29;5.63;;;3.70;;
7191;SDS011;3637;51.494;11.958;2023-02-28T13:53:53;4.30;;;3.50;;
7191;SDS011;3637;51.494;11.958;2023-02-28T13:57:06;5.60;;;3.40;;
7191;SDS011;3637;51.494;11.958;2023-02-28T14:00:27;3.77;;;3.30;;
7191;SDS011;3637;51.494;11.958;2023-02-28T14:03:39;10.20;;;4.00;;
7191;SDS011;3637;51.494;11.958;2023-02-28T14:06:51;3.40;;;3.10;;
7191;SDS011;3637;51.494;11.958;2023-02-28T14:09:56;4.63;;;3.03;;
7191;SDS011;3637;51.494;11.958;2023-02-28T14:13:11;4.53;;;3.43;;
7191;SDS011;3637;51.494;11.958;2023-02-28T14:16:40;5.80;;;3.50;;
7191;SDS011;3637;51.494;11.958;2023-02-28T14:19:45;5.60;;;3.80;;
7191;SDS011;3637;51.494;11.958;2023-02-28T14:22:53;5.37;;;3.43;;
7191;SDS011;3637;51.494;11.958;2023-02-28T14:26:03;3.83;;;3.40;;
7191;SDS011;3637;51.494;11.958;2023-02-28T14:29:22;3.60;;;3.30;;
7191;SDS011;3637;51.494;11.958;2023-02-28T14:32:40;5.63;;;3.30;;
7191;SDS011;3637;51.494;11.958;2023-02-28T14:36:18;5.70;;;3.20;;
7191;SDS011;3637;51.494;11.958;2023-02-28T14:39:28;4.37;;;3.00;;
7191;SDS011;3637;51.494;11.958;2023-02-28T14:42:32;4.77;;;3.03;;
7191;SDS011;3637;51.494;11.958;2023-02-28T14:45:35;5.30;;;3.17;;
7191;SDS011;3637;51.494;11.958;2023-02-28T14:48:40;4.47;;;3.20;;
7191;SDS011;3637;51.494;11.958;2023-02-28T14:51:42;3.47;;;2.87;;
7191;SDS011;3637;51.494;11.958;2023-02-28T14:54:44;3.60;;;3.00;;
7191;SDS011;3637;51.494;11.958;2023-02-28T14:57:56;3.20;;;2.90;;
7191;SDS011;3637;51.494;11.958;2023-02-28T15:01:04;3.60;;;2.83;;
7191;SDS011;3637;51.494;11.958;2023-02-28T15:04:15;3.93;;;3.27;;
7191;SDS011;3637;51.494;11.958;2023-02-28T15:07:24;3.67;;;3.00;;
7191;SDS011;3637;51.494;11.958;2023-02-28T15:10:29;3.90;;;3.23;;
7191;SDS011;3637;51.494;11.958;2023-02-28T15:13:34;3.23;;;2.80;;
7191;SDS011;3637;51.494;11.958;2023-02-28T15:16:40;5.63;;;3.57;;
7191;SDS011;3637;51.494;11.958;2023-02-28T15:19:46;4.03;;;3.10;;
7191;SDS011;3637;51.494;11.958;2023-02-28T15:22:52;4.20;;;2.97;;
7191;SDS011;3637;51.494;11.958;2023-02-28T15:25:57;5.10;;;3.33;;
7191;SDS011;3637;51.494;11.958;2023-02-28T15:29:01;4.40;;;2.70;;
7191;SDS011;3637;51.494;11.958;2023-02-28T15:32:19;3.83;;;3.07;;
7191;SDS011;3637;51.494;11.958;2023-02-28T15:35:29;4.00;;;3.50;;
7191;SDS011;3637;51.494;11.958;2023-02-28T15:38:33;6.13;;;3.80;;
7191;SDS011;3637;51.494;11.958;2023-02-28T15:41:37;5.87;;;3.50;;
7191;SDS011;3637;51.494;11.958;2023-02-28T15:44:39;5.17;;;3.43;;
7191;SDS011;3637;51.494;11.958;2023-02-28T15:47:44;7.70;;;3.80;;
7191;SDS011;3637;51.494;11.958;2023-02-28T15:50:49;5.93;;;3.20;;
7191;SDS011;3637;51.494;11.958;2023-02-28T15:53:54;3.20;;;2.90;;
7191;SDS011;3637;51.494;11.958;2023-02-28T15:57:02;3.90;;;3.23;;
7191;SDS011;3637;51.494;11.958;2023-02-28T16:00:10;5.53;;;3.30;;
7191;SDS011;3637;51.494;11.958;2023-02-28T16:03:24;5.53;;;3.20;;
7191;SDS011;3637;51.494;11.958;2023-02-28T16:06:40;6.33;;;3.50;;
7191;SDS011;3637;51.494;11.958;2023-02-28T16:09:43;4.93;;;3.50;;
7191;SDS011;3637;51.494;11.958;2023-02-28T16:12:47;3.87;;;3.43;;
7191;SDS011;3637;51.494;11.958;2023-02-28T16:15:49;5.30;;;3.43;;
7191;SDS011;3637;51.494;11.958;2023-02-28T16:18:52;6.13;;;3.83;;
7191;SDS011;3637;51.494;11.958;2023-02-28T16:22:10;6.07;;;3.57;;
7191;SDS011;3637;51.494;11.958;2023-02-28T16:25:26;4.83;;;3.57;;
7191;SDS011;3637;51.494;11.958;2023-02-28T16:28:50;4.77;;;3.30;;
7191;SDS011;3637;51.494;11.958;2023-02-28T16:31:59;5.07;;;3.80;;
7191;SDS011;3637;51.494;11.958;2023-02-28T16:35:01;4.53;;;3.13;;
7191;SDS011;3637;51.494;11.958;2023-02-28T16:38:11;4.47;;;3.47;;
7191;SDS011;3637;51.494;11.958;2023-02-28T16:41:13;6.90;;;4.20;;
7191;SDS011;3637;51.494;11.958;2023-02-28T16:44:24;8.77;;;4.13;;
7191;SDS011;3637;51.494;11.958;2023-02-28T16:47:40;10.60;;;3.77;;
7191;SDS011;3637;51.494;11.958;2023-02-28T16:50:48;9.97;;;3.77;;
7191;SDS011;3637;51.494;11.958;2023-02-28T16:53:51;4.70;;;3.97;;
7191;SDS011;3637;51.494;11.958;2023-02-28T16:56:58;5.37;;;4.40;;
7191;SDS011;3637;51.494;11.958;2023-02-28T17:00:00;5.47;;;4.40;;
7191;SDS011;3637;51.494;11.958;2023-02-28T17:03:23;10.90;;;4.43;;
7191;SDS011;3637;51.494;11.958;2023-02-28T17:06:36;5.43;;;4.27;;
7191;SDS011;3637;51.494;11.958;2023-02-28T17:09:41;8.07;;;4.47;;
7191;SDS011;3637;51.494;11.958;2023-02-28T17:12:43;5.53;;;3.90;;
7191;SDS011;3637;51.494;11.958;2023-02-28T17:15:45;5.57;;;4.60;;
7191;SDS011;3637;51.494;11.958;2023-02-28T17:18:47;6.07;;;4.40;;
7191;SDS011;3637;51.494;11.958;2023-02-28T17:21:50;7.80;;;4.63;;
7191;SDS011;3637;51.494;11.958;2023-02-28T17:24:56;8.43;;;5.13;;
7191;SDS011;3637;51.494;11.958;2023-02-28T17:28:03;6.53;;;4.07;;
7191;SDS011;3637;51.494;11.958;2023-02-28T17:31:11;6.53;;;5.00;;
7191;SDS011;3637;51.494;11.958;2023-02-28T17:34:32;6.87;;;4.93;;
7191;SDS011;3637;51.494;11.958;2023-02-28T17:37:41;5.90;;;4.97;;
7191;SDS011;3637;51.494;11.958;2023-02-28T17:40:44;9.13;;;5.33;;
7191;SDS011;3637;51.494;11.958;2023-02-28T17:43:52;8.33;;;5.43;;
7191;SDS011;3637;51.494;11.958;2023-02-28T17:46:58;15.63;;;5.17;;
7191;SDS011;3637;51.494;11.958;2023-02-28T17:50:02;7.30;;;5.47;;
7191;SDS011;3637;51.494;11.958;2023-02-28T17:53:06;10.17;;;5.80;;
7191;SDS011;3637;51.494;11.958;2023-02-28T17:56:18;9.00;;;6.07;;
7191;SDS011;3637;51.494;11.958;2023-02-28T17:59:38;9.13;;;6.20;;
7191;SDS011;3637;51.494;11.958;2023-02-28T18:02:51;10.90;;;6.60;;
7191;SDS011;3637;51.494;11.958;2023-02-28T18:06:05;10.03;;;5.87;;
7191;SDS011;3637;51.494;11.958;2023-02-28T18:09:13;10.63;;;5.47;;
7191;SDS011;3637;51.494;11.958;2023-02-28T18:12:30;11.77;;;6.63;;
7191;SDS011;3637;51.494;11.958;2023-02-28T18:15:38;9.63;;;5.53;;
7191;SDS011;3637;51.494;11.958;2023-02-28T18:18:47;7.97;;;5.20;;
7191;SDS011;3637;51.494;11.958;2023-02-28T18:22:01;8.53;;;5.67;;
7191;SDS011;3637;51.494;11.958;2023-02-28T18:25:03;8.70;;;5.60;;
7191;SDS011;3637;51.494;11.958;2023-02-28T18:28:09;9.77;;;6.27;;
7191;SDS011;3637;51.494;11.958;2023-02-28T18:31:15;11.17;;;6.20;;
7191;SDS011;3637;51.494;11.958;2023-02-28T18:34:21;7.53;;;6.20;;
7191;SDS011;3637;51.494;11.958;2023-02-28T18:37:41;7.90;;;5.60;;
7191;SDS011;3637;51.494;11.958;2023-02-28T18:40:48;9.03;;;5.80;;
7191;SDS011;3637;51.494;11.958;2023-02-28T18:43:54;7.13;;;5.20;;
7191;SDS011;3637;51.494;11.958;2023-02-28T18:46:56;8.23;;;5.37;;
7191;SDS011;3637;51.494;11.958;2023-02-28T18:49:57;8.03;;;5.30;;
7191;SDS011;3637;51.494;11.958;2023-02-28T18:52:59;8.10;;;5.20;;
7191;SDS011;3637;51.494;11.958;2023-02-28T18:56:02;13.80;;;6.07;;
7191;SDS011;3637;51.494;11.958;2023-02-28T18:59:07;13.73;;;6.33;;
7191;SDS011;3637;51.494;11.958;2023-02-28T19:02:10;6.30;;;5.30;;
7191;SDS011;3637;51.494;11.958;2023-02-28T19:05:12;7.70;;;5.33;;
7191;SDS011;3637;51.494;11.958;2023-02-28T19:08:13;7.43;;;5.20;;
7191;SDS011;3637;51.494;11.958;2023-02-28T19:11:16;8.03;;;5.50;;
7191;SDS011;3637;51.494;11.958;2023-02-28T19:14:23;6.37;;;5.17;;
7191;SDS011;3637;51.494;11.958;2023-02-28T19:17:26;7.20;;;4.63;;